createdAt,value
2018-07-03T00:00:53.610Z,101849.00
2018-07-03T00:03:27.416Z,101848.00
2018-07-03T00:05:58.166Z,101847.00
2018-07-03T00:08:28.276Z,101847.00
2018-07-03T00:10:59.539Z,101858.00
2018-07-03T00:13:29.991Z,101854.00
2018-07-03T00:16:00.318Z,101854.00
2018-07-03T00:18:31.156Z,101855.00
2018-07-03T00:21:01.118Z,101854.00
2018-07-03T00:23:31.525Z,101857.00
2018-07-03T00:26:07.386Z,101853.00
2018-07-03T00:28:41.373Z,101853.00
2018-07-03T00:31:11.605Z,101857.00
2018-07-03T00:33:42.554Z,101858.00
2018-07-03T00:36:13.762Z,101860.00
2018-07-03T00:38:44.335Z,101863.00
2018-07-03T00:41:15.146Z,101864.00
2018-07-03T00:44:05.918Z,101860.00
2018-07-03T00:46:36.198Z,101855.00
2018-07-03T00:49:06.645Z,101855.00
2018-07-03T00:51:36.892Z,101855.00
2018-07-03T00:54:07.930Z,101855.00
2018-07-03T00:56:39.006Z,101851.00
2018-07-03T00:59:09.837Z,101850.00
2018-07-03T01:01:40.164Z,101845.00
2018-07-03T01:04:11.545Z,101847.00
2018-07-03T01:06:42.854Z,101844.00
2018-07-03T01:09:13.115Z,101845.00
2018-07-03T01:11:44.563Z,101847.00
2018-07-03T01:14:14.965Z,101842.00
2018-07-03T01:16:45.937Z,101842.00
2018-07-03T01:19:17.838Z,101835.00
2018-07-03T01:21:49.957Z,101838.00
2018-07-03T01:24:20.390Z,101840.00
2018-07-03T01:26:52.309Z,101848.00
2018-07-03T01:29:23.266Z,101844.00
2018-07-03T01:31:53.997Z,101843.00
2018-07-03T01:34:24.516Z,101848.00
2018-07-03T01:36:55.119Z,101843.00
2018-07-03T01:39:25.964Z,101839.00
2018-07-03T01:41:57.618Z,101838.00
2018-07-03T01:44:29.802Z,101836.00
2018-07-03T01:47:02.238Z,101837.00
2018-07-03T01:49:33.136Z,101835.00
2018-07-03T01:52:04.006Z,101836.00
2018-07-03T01:54:34.365Z,101840.00
2018-07-03T01:57:04.718Z,101835.00
2018-07-03T01:59:35.693Z,101839.00
2018-07-03T02:02:05.892Z,101837.00
2018-07-03T02:04:36.309Z,101839.00
2018-07-03T02:07:08.677Z,101832.00
2018-07-03T02:09:38.893Z,101831.00
2018-07-03T02:12:10.618Z,101829.00
2018-07-03T02:14:42.154Z,101833.00
2018-07-03T02:17:13.001Z,101834.00
2018-07-03T02:19:43.757Z,101823.00
2018-07-03T02:22:15.350Z,101824.00
2018-07-03T02:24:45.573Z,101820.00
2018-07-03T02:27:18.892Z,101815.00
2018-07-03T02:29:49.926Z,101816.00
2018-07-03T02:32:20.901Z,101810.00
2018-07-03T02:34:53.473Z,101819.00
2018-07-03T02:37:24.622Z,101817.00
2018-07-03T02:39:55.038Z,101822.00
2018-07-03T02:42:26.376Z,101824.00
2018-07-03T02:44:57.601Z,101830.00
2018-07-03T02:47:28.838Z,101830.00
2018-07-03T02:50:00.444Z,101827.00
2018-07-03T02:52:34.766Z,101821.00
2018-07-03T02:55:05.256Z,101817.00
2018-07-03T02:57:35.961Z,101816.00
2018-07-03T03:00:07.059Z,101812.00
2018-07-03T03:02:38.612Z,101814.00
2018-07-03T03:05:09.622Z,101807.00
2018-07-03T03:07:40.481Z,101809.00
2018-07-03T03:10:11.870Z,101814.00
2018-07-03T03:12:42.933Z,101817.00
2018-07-03T03:15:14.785Z,101819.00
2018-07-03T03:17:45.101Z,101816.00
2018-07-03T03:20:16.383Z,101815.00
2018-07-03T03:22:47.658Z,101815.00
2018-07-03T03:25:18.288Z,101812.00
2018-07-03T03:27:48.574Z,101809.00
2018-07-03T03:30:18.958Z,101808.00
2018-07-03T03:32:50.371Z,101807.00
2018-07-03T03:35:20.715Z,101810.00
2018-07-03T03:37:53.862Z,101811.00
2018-07-03T03:40:25.501Z,101809.00
2018-07-03T03:42:56.346Z,101809.00
2018-07-03T03:45:27.726Z,101812.00
2018-07-03T03:47:57.940Z,101808.00
2018-07-03T03:50:28.312Z,101807.00
2018-07-03T03:53:00.385Z,101799.00
2018-07-03T03:55:30.597Z,101803.00
2018-07-03T03:58:00.920Z,101806.00
2018-07-03T04:00:32.455Z,101807.00
2018-07-03T04:03:03.142Z,101807.00
2018-07-03T04:05:33.342Z,101806.00
2018-07-03T04:08:04.159Z,101806.00
2018-07-03T04:10:36.723Z,101811.00
2018-07-03T04:13:08.408Z,101812.00
2018-07-03T04:15:38.673Z,101816.00
2018-07-03T04:18:09.435Z,101810.00
2018-07-03T04:20:40.077Z,101814.00
2018-07-03T04:23:11.187Z,101813.00
2018-07-03T04:25:41.980Z,101814.00
2018-07-03T04:28:12.241Z,101812.00
2018-07-03T04:30:42.625Z,101812.00
2018-07-03T04:33:13.539Z,101812.00
2018-07-03T04:35:44.326Z,101813.00
2018-07-03T04:38:15.752Z,101816.00
2018-07-03T04:40:46.179Z,101816.00
2018-07-03T04:43:17.396Z,101815.00
2018-07-03T04:45:47.760Z,101817.00
2018-07-03T04:48:19.271Z,101819.00
2018-07-03T04:50:54.820Z,101824.00
2018-07-03T04:53:25.174Z,101822.00
2018-07-03T04:55:57.422Z,101819.00
2018-07-03T04:58:29.178Z,101819.00
2018-07-03T05:01:01.200Z,101817.00
2018-07-03T05:03:32.195Z,101812.00
2018-07-03T05:06:03.255Z,101811.00
2018-07-03T05:08:33.984Z,101801.00
2018-07-03T05:11:04.843Z,101802.00
2018-07-03T05:13:37.679Z,101806.00
2018-07-03T05:16:09.830Z,101812.00
2018-07-03T05:18:41.740Z,101809.00
2018-07-03T05:21:15.165Z,101805.00
2018-07-03T05:23:47.188Z,101805.00
2018-07-03T05:26:18.970Z,101808.00
2018-07-03T05:28:52.094Z,101811.00
2018-07-03T05:31:22.562Z,101806.00
2018-07-03T05:33:53.707Z,101818.00
2018-07-03T05:36:25.845Z,101819.00
2018-07-03T05:38:56.564Z,101818.00
2018-07-03T05:41:27.053Z,101821.00
2018-07-03T05:43:58.104Z,101815.00
2018-07-03T05:46:29.159Z,101814.00
2018-07-03T05:49:00.684Z,101819.00
2018-07-03T05:51:34.123Z,101819.00
2018-07-03T05:54:04.507Z,101817.00
2018-07-03T05:56:37.404Z,101821.00
2018-07-03T05:59:07.823Z,101821.00
2018-07-03T06:01:38.942Z,101815.00
2018-07-03T06:04:09.820Z,101816.00
2018-07-03T06:06:40.229Z,101819.00
2018-07-03T06:09:11.348Z,101815.00
2018-07-03T06:11:43.897Z,101817.00
2018-07-03T06:14:15.984Z,101818.00
2018-07-03T06:16:47.373Z,101816.00
2018-07-03T06:19:17.670Z,101813.00
2018-07-03T06:21:49.945Z,101804.00
2018-07-03T06:24:20.742Z,101816.00
2018-07-03T06:26:50.919Z,101808.00
2018-07-03T06:29:21.104Z,101811.00
2018-07-03T06:31:51.319Z,101814.00
2018-07-03T06:34:21.514Z,101805.00
2018-07-03T06:36:52.300Z,101808.00
2018-07-03T06:39:23.560Z,101808.00
2018-07-03T06:41:54.308Z,101805.00
2018-07-03T06:44:24.461Z,101808.00
2018-07-03T06:46:54.360Z,101814.00
2018-07-03T06:49:24.533Z,101809.00
2018-07-03T06:51:54.793Z,101807.00
2018-07-03T06:54:25.481Z,101796.00
2018-07-03T06:56:55.709Z,101804.00
2018-07-03T06:59:26.093Z,101810.00
2018-07-03T07:01:56.328Z,101810.00
2018-07-03T07:04:27.153Z,101808.00
2018-07-03T07:06:57.746Z,101808.00
2018-07-03T07:09:28.001Z,101810.00
2018-07-03T07:11:58.580Z,101813.00
2018-07-03T07:14:28.882Z,101805.00
2018-07-03T07:16:59.165Z,101800.00
2018-07-03T07:19:29.733Z,101808.00
2018-07-03T07:22:00.074Z,101804.00
2018-07-03T07:24:30.837Z,101807.00
2018-07-03T07:27:01.113Z,101806.00
2018-07-03T07:29:31.386Z,101802.00
2018-07-03T07:32:01.897Z,101810.00
2018-07-03T07:34:34.348Z,101813.00
2018-07-03T07:37:04.810Z,101812.00
2018-07-03T07:39:35.607Z,101816.00
2018-07-03T07:42:05.946Z,101819.00
2018-07-03T07:44:36.188Z,101823.00
2018-07-03T07:47:07.181Z,101821.00
2018-07-03T07:49:37.436Z,101815.00
2018-07-03T07:52:07.785Z,101812.00
2018-07-03T07:54:38.399Z,101813.00
2018-07-03T07:57:08.864Z,101808.00
2018-07-03T07:59:39.364Z,101812.00
2018-07-03T08:02:10.357Z,101810.00
2018-07-03T08:04:40.620Z,101803.00
2018-07-03T08:07:11.192Z,101801.00
2018-07-03T08:09:41.533Z,101800.00
2018-07-03T08:12:11.981Z,101805.00
2018-07-03T08:14:43.179Z,101797.00
2018-07-03T08:17:13.718Z,101799.00
2018-07-03T08:19:45.062Z,101798.00
2018-07-03T08:22:15.710Z,101797.00
2018-07-03T08:24:46.078Z,101802.00
2018-07-03T08:27:17.597Z,101795.00
2018-07-03T08:29:48.279Z,101800.00
2018-07-03T08:32:19.643Z,101795.00
2018-07-03T08:34:51.178Z,101800.00
2018-07-03T08:37:21.209Z,101794.00
2018-07-03T08:39:51.945Z,101797.00
2018-07-03T08:42:23.037Z,101793.00
2018-07-03T08:44:54.359Z,101796.00
2018-07-03T08:47:26.206Z,101793.00
2018-07-03T08:49:56.858Z,101790.00
2018-07-03T08:52:28.910Z,101786.00
2018-07-03T08:54:59.148Z,101787.00
2018-07-03T08:57:30.841Z,101787.00
2018-07-03T09:00:05.869Z,101787.00
2018-07-03T09:02:41.936Z,101785.00
2018-07-03T09:05:13.807Z,101785.00
2018-07-03T09:07:45.180Z,101788.00
2018-07-03T09:10:19.299Z,101784.00
2018-07-03T09:12:50.269Z,101784.00
2018-07-03T09:15:24.901Z,101776.00
2018-07-03T09:17:55.956Z,101778.00
2018-07-03T09:20:26.470Z,101774.00
2018-07-03T09:22:58.565Z,101781.00
2018-07-03T09:25:29.418Z,101773.00
2018-07-03T09:28:00.472Z,101770.00
2018-07-03T09:30:32.115Z,101766.00
2018-07-03T09:33:05.844Z,101774.00
2018-07-03T09:35:37.317Z,101772.00
2018-07-03T09:38:11.841Z,101770.00
2018-07-03T09:40:43.057Z,101771.00
2018-07-03T09:43:14.252Z,101765.00
2018-07-03T09:45:45.582Z,101765.00
2018-07-03T09:48:16.399Z,101760.00
2018-07-03T09:50:48.018Z,101754.00
2018-07-03T09:53:22.723Z,101754.00
2018-07-03T09:55:53.075Z,101751.00
2018-07-03T09:58:25.150Z,101754.00
2018-07-03T10:00:58.274Z,101746.00
2018-07-03T10:03:29.507Z,101756.00
2018-07-03T10:06:01.028Z,101743.00
2018-07-03T10:08:32.844Z,101744.00
2018-07-03T10:11:03.247Z,101747.00
2018-07-03T10:13:34.180Z,101747.00
2018-07-03T10:16:05.246Z,101754.00
2018-07-03T10:18:35.617Z,101752.00
2018-07-03T10:21:07.254Z,101751.00
2018-07-03T10:23:38.319Z,101753.00
2018-07-03T10:26:08.641Z,101749.00
2018-07-03T10:28:39.083Z,101753.00
2018-07-03T10:31:09.996Z,101750.00
2018-07-03T10:33:41.061Z,101748.00
2018-07-03T10:36:11.305Z,101741.00
2018-07-03T10:38:41.622Z,101745.00
2018-07-03T10:41:11.857Z,101735.00
2018-07-03T10:43:48.482Z,101738.00
2018-07-03T10:46:18.895Z,101736.00
2018-07-03T10:48:55.556Z,101737.00
2018-07-03T10:51:26.232Z,101740.00
2018-07-03T10:53:57.056Z,101737.00
2018-07-03T10:56:35.970Z,101735.00
2018-07-03T10:59:07.752Z,101732.00
2018-07-03T11:01:38.040Z,101728.00
2018-07-03T11:04:11.912Z,101721.00
2018-07-03T11:06:42.997Z,101724.00
2018-07-03T11:09:13.488Z,101721.00
2018-07-03T11:11:44.378Z,101724.00
2018-07-03T11:14:15.330Z,101729.00
2018-07-03T11:16:48.304Z,101728.00
2018-07-03T11:19:19.141Z,101723.00
2018-07-03T11:21:50.144Z,101727.00
2018-07-03T11:24:20.672Z,101727.00
2018-07-03T11:26:51.405Z,101728.00
2018-07-03T11:29:24.185Z,101722.00
2018-07-03T11:31:57.315Z,101721.00
2018-07-03T11:34:28.364Z,101717.00
2018-07-03T11:36:59.508Z,101718.00
2018-07-03T11:39:29.826Z,101721.00
2018-07-03T11:41:59.758Z,101718.00
2018-07-03T11:44:30.189Z,101722.00
2018-07-03T11:47:02.472Z,101716.00
2018-07-03T11:49:34.387Z,101714.00
2018-07-03T11:52:05.061Z,101720.00
2018-07-03T11:54:35.845Z,101717.00
2018-07-03T11:57:06.616Z,101724.00
2018-07-03T11:59:39.625Z,101723.00
2018-07-03T12:02:10.273Z,101718.00
2018-07-03T12:04:40.494Z,101722.00
2018-07-03T12:07:10.702Z,101722.00
2018-07-03T12:09:40.889Z,101721.00
2018-07-03T12:12:11.844Z,101718.00
2018-07-03T12:14:42.381Z,101718.00
2018-07-03T12:17:12.824Z,101716.00
2018-07-03T12:19:43.086Z,101716.00
2018-07-03T12:22:17.825Z,101718.00
2018-07-03T12:24:48.057Z,101713.00
2018-07-03T12:27:18.844Z,101706.00
2018-07-03T12:29:49.897Z,101704.00
2018-07-03T12:32:23.839Z,101716.00
2018-07-03T12:34:54.158Z,101710.00
2018-07-03T12:37:24.334Z,101700.00
2018-07-03T12:39:54.552Z,101708.00
2018-07-03T12:42:24.678Z,101708.00
2018-07-03T12:44:55.179Z,101706.00
2018-07-03T12:47:26.171Z,101707.00
2018-07-03T12:49:56.413Z,101705.00
2018-07-03T12:52:26.590Z,101707.00
2018-07-03T12:54:56.847Z,101702.00
2018-07-03T12:57:27.037Z,101707.00
2018-07-03T12:59:58.280Z,101708.00
2018-07-03T13:02:28.463Z,101703.00
2018-07-03T13:04:58.830Z,101705.00
2018-07-03T13:07:28.995Z,101705.00
2018-07-03T13:09:59.182Z,101704.00
2018-07-03T13:12:30.024Z,101702.00
2018-07-03T13:15:00.374Z,101714.00
2018-07-03T13:17:30.579Z,101712.00
2018-07-03T13:20:00.802Z,101710.00
2018-07-03T13:22:30.983Z,101709.00
2018-07-03T13:25:01.385Z,101704.00
2018-07-03T13:27:31.594Z,101709.00
2018-07-03T13:30:02.163Z,101706.00
2018-07-03T13:32:32.237Z,101708.00
2018-07-03T13:35:04.321Z,101704.00
2018-07-03T13:37:34.495Z,101701.00
2018-07-03T13:40:05.436Z,101703.00
2018-07-03T13:42:36.103Z,101698.00
2018-07-03T13:45:06.437Z,101698.00
2018-07-03T13:47:36.649Z,101693.00
2018-07-03T13:50:07.143Z,101687.00
2018-07-03T13:52:37.385Z,101693.00
2018-07-03T13:55:07.394Z,101690.00
2018-07-03T13:57:37.460Z,101694.00
2018-07-03T14:00:09.541Z,101700.00
2018-07-03T14:02:39.763Z,101700.00
2018-07-03T14:05:10.022Z,101689.00
2018-07-03T14:07:40.238Z,101697.00
2018-07-03T14:10:10.419Z,101696.00
2018-07-03T14:12:40.619Z,101696.00
2018-07-03T14:15:10.936Z,101700.00
2018-07-03T14:17:41.114Z,101700.00
2018-07-03T14:20:11.483Z,101699.00
2018-07-03T14:22:41.673Z,101701.00
2018-07-03T14:25:11.871Z,101704.00
2018-07-03T14:27:42.094Z,101697.00
2018-07-03T14:30:12.118Z,101698.00
2018-07-03T14:32:42.318Z,101692.00
2018-07-03T14:35:13.184Z,101693.00
2018-07-03T14:37:43.752Z,101688.00
2018-07-03T14:40:14.254Z,101695.00
2018-07-03T14:42:44.445Z,101697.00
2018-07-03T14:45:14.653Z,101695.00
2018-07-03T14:47:44.851Z,101698.00
2018-07-03T14:50:15.134Z,101700.00
2018-07-03T14:52:45.338Z,101701.00
2018-07-03T14:55:15.510Z,101699.00
2018-07-03T14:57:51.886Z,101705.00
2018-07-03T15:19:56.473Z,101701.00
2018-07-03T15:22:27.257Z,101696.00
2018-07-03T15:24:59.104Z,101700.00
2018-07-03T15:27:29.385Z,101697.00
2018-07-03T15:29:59.248Z,101698.00
2018-07-03T15:32:29.307Z,101699.00
2018-07-03T15:34:59.489Z,101687.00
2018-07-03T15:37:29.879Z,101690.00
2018-07-03T15:40:00.062Z,101687.00
2018-07-03T15:42:30.199Z,101688.00
2018-07-03T15:45:09.988Z,101692.00
2018-07-03T15:47:40.134Z,101691.00
2018-07-03T15:50:11.539Z,101683.00
2018-07-03T15:52:41.690Z,101687.00
2018-07-03T15:55:12.520Z,101684.00
2018-07-03T15:57:43.436Z,101685.00
2018-07-03T16:00:15.902Z,101693.00
2018-07-03T16:03:06.597Z,101687.00
2018-07-03T16:05:58.872Z,101688.00
2018-07-03T16:08:47.483Z,101684.00
2018-07-03T16:11:18.237Z,101687.00
2018-07-03T16:13:48.467Z,101689.00
2018-07-03T16:16:19.406Z,101687.00
2018-07-03T16:18:50.565Z,101681.00
2018-07-03T16:21:20.695Z,101684.00
2018-07-03T16:23:50.867Z,101684.00
2018-07-03T16:26:21.914Z,101682.00
2018-07-03T16:28:53.496Z,101681.00
2018-07-03T16:31:24.572Z,101680.00
2018-07-03T16:33:55.795Z,101680.00
2018-07-03T16:36:25.956Z,101677.00
2018-07-03T16:38:56.097Z,101676.00
2018-07-03T16:41:26.325Z,101678.00
2018-07-03T16:43:56.757Z,101676.00
2018-07-03T16:46:27.884Z,101672.00
2018-07-03T16:48:58.368Z,101675.00
2018-07-03T16:51:29.987Z,101679.00
2018-07-03T16:54:00.160Z,101664.00
2018-07-03T16:56:30.371Z,101661.00
2018-07-03T16:59:00.614Z,101659.00
2018-07-03T17:01:31.019Z,101661.00
2018-07-03T17:04:01.209Z,101659.00
2018-07-03T17:06:32.369Z,101661.00
2018-07-03T17:09:02.649Z,101663.00
2018-07-03T17:11:35.332Z,101670.00
2018-07-03T17:14:07.858Z,101663.00
2018-07-03T17:16:38.233Z,101668.00
2018-07-03T17:19:13.702Z,101667.00
2018-07-03T17:21:43.940Z,101671.00
2018-07-03T17:24:14.196Z,101673.00
2018-07-03T17:26:44.419Z,101672.00
2018-07-03T17:29:14.648Z,101676.00
2018-07-03T17:31:45.321Z,101676.00
2018-07-03T17:34:15.888Z,101672.00
2018-07-03T17:36:46.193Z,101671.00
2018-07-03T17:39:18.339Z,101672.00
2018-07-03T17:42:06.390Z,101669.00
2018-07-03T17:44:52.744Z,101674.00
2018-07-03T17:47:23.428Z,101671.00
2018-07-03T17:49:53.701Z,101671.00
2018-07-03T17:52:23.860Z,101670.00
2018-07-03T17:54:53.987Z,101663.00
2018-07-03T17:57:24.181Z,101678.00
2018-07-03T17:59:56.411Z,101671.00
2018-07-03T18:02:26.566Z,101672.00
2018-07-03T18:04:56.911Z,101671.00
2018-07-03T18:07:27.063Z,101669.00
2018-07-03T18:09:58.137Z,101671.00
2018-07-03T18:12:28.363Z,101664.00
2018-07-03T18:14:58.584Z,101668.00
2018-07-03T18:17:28.721Z,101668.00
2018-07-03T18:19:58.905Z,101674.00
2018-07-03T18:22:29.040Z,101667.00
2018-07-03T18:24:59.459Z,101668.00
2018-07-03T18:27:29.611Z,101666.00
2018-07-03T18:29:59.754Z,101663.00
2018-07-03T18:32:30.065Z,101667.00
2018-07-03T18:35:00.276Z,101664.00
2018-07-03T18:37:30.464Z,101663.00
2018-07-03T18:40:00.606Z,101660.00
2018-07-03T18:42:31.013Z,101662.00
2018-07-03T18:45:01.314Z,101666.00
2018-07-03T18:47:31.530Z,101664.00
2018-07-03T18:50:01.656Z,101673.00
2018-07-03T18:52:31.829Z,101669.00
2018-07-03T18:55:02.025Z,101666.00
2018-07-03T18:57:32.787Z,101669.00
2018-07-03T19:00:03.478Z,101662.00
2018-07-03T19:02:36.538Z,101665.00
2018-07-03T19:05:06.772Z,101666.00
2018-07-03T19:07:37.656Z,101660.00
2018-07-03T19:10:08.019Z,101669.00
2018-07-03T19:12:39.903Z,101666.00
2018-07-03T19:15:10.725Z,101664.00
2018-07-03T19:17:44.950Z,101667.00
2018-07-03T19:20:18.402Z,101670.00
2018-07-03T19:22:48.658Z,101678.00
2018-07-03T19:25:18.886Z,101676.00
2018-07-03T19:27:49.131Z,101680.00
2018-07-03T19:30:19.474Z,101677.00
2018-07-03T19:32:54.474Z,101678.00
2018-07-03T19:35:24.954Z,101680.00
2018-07-03T19:37:55.256Z,101684.00
2018-07-03T19:40:26.401Z,101689.00
2018-07-03T19:43:34.521Z,101692.00
2018-07-03T19:46:06.922Z,101687.00
2018-07-03T19:48:37.343Z,101689.00
2018-07-03T19:51:08.869Z,101686.00
2018-07-03T19:53:41.139Z,101684.00
2018-07-03T19:56:12.575Z,101690.00
2018-07-03T19:58:46.121Z,101688.00
2018-07-03T20:01:16.391Z,101690.00
2018-07-03T20:03:46.608Z,101692.00
2018-07-03T20:06:17.480Z,101685.00
2018-07-03T20:08:48.664Z,101691.00
2018-07-03T20:11:20.090Z,101691.00
2018-07-03T20:13:50.549Z,101694.00
2018-07-03T20:16:21.608Z,101695.00
2018-07-03T20:18:51.909Z,101694.00
2018-07-03T20:21:23.012Z,101698.00
2018-07-03T20:23:55.035Z,101700.00
2018-07-03T20:26:26.160Z,101701.00
2018-07-03T20:28:58.150Z,101706.00
2018-07-03T20:31:29.521Z,101707.00
2018-07-03T20:34:02.345Z,101709.00
2018-07-03T20:36:34.739Z,101705.00
2018-07-03T20:39:09.948Z,101708.00
2018-07-03T20:41:41.762Z,101707.00
2018-07-03T20:44:12.286Z,101711.00
2018-07-03T20:46:44.624Z,101711.00
2018-07-03T20:49:19.297Z,101702.00
2018-07-03T20:51:49.372Z,101710.00
2018-07-03T20:54:21.184Z,101707.00
2018-07-03T20:56:51.357Z,101707.00
2018-07-03T20:59:21.525Z,101700.00
2018-07-03T21:01:51.665Z,101707.00
2018-07-03T21:04:22.016Z,101702.00
2018-07-03T21:06:52.211Z,101708.00
2018-07-03T21:09:22.594Z,101709.00
2018-07-03T21:11:53.961Z,101710.00
2018-07-03T21:14:24.211Z,101709.00
2018-07-03T21:16:54.470Z,101710.00
2018-07-03T21:19:25.037Z,101716.00
2018-07-03T21:21:56.045Z,101714.00
2018-07-03T21:24:27.431Z,101707.00
2018-07-03T21:26:57.857Z,101706.00
2018-07-03T21:29:28.051Z,101708.00
2018-07-03T21:31:58.294Z,101704.00
2018-07-03T21:34:30.994Z,101704.00
2018-07-03T21:37:01.197Z,101707.00
2018-07-03T21:39:31.397Z,101704.00
2018-07-03T21:42:02.221Z,101707.00
2018-07-03T21:44:35.409Z,101701.00
2018-07-03T21:47:09.187Z,101706.00
2018-07-03T21:49:41.493Z,101702.00
2018-07-03T21:52:13.204Z,101697.00
2018-07-03T21:54:46.361Z,101702.00
2018-07-03T21:57:20.362Z,101699.00
2018-07-03T21:59:53.441Z,101702.00
2018-07-03T22:02:26.112Z,101697.00
2018-07-03T22:04:58.702Z,101697.00
2018-07-03T22:07:33.565Z,101692.00
2018-07-03T22:10:04.323Z,101696.00
2018-07-03T22:12:36.028Z,101694.00
2018-07-03T22:15:07.302Z,101701.00
2018-07-03T22:17:37.595Z,101700.00
2018-07-03T22:20:07.830Z,101701.00
2018-07-03T22:22:40.345Z,101700.00
2018-07-03T22:25:12.067Z,101694.00
2018-07-03T22:27:43.515Z,101690.00
2018-07-03T22:30:17.929Z,101690.00
2018-07-03T22:32:50.691Z,101687.00
2018-07-03T22:35:22.979Z,101682.00
2018-07-03T22:38:03.578Z,101678.00
2018-07-03T22:40:37.154Z,101680.00
2018-07-03T22:43:08.493Z,101679.00
2018-07-03T22:45:39.762Z,101686.00
2018-07-03T22:48:16.980Z,101678.00
2018-07-03T22:50:47.261Z,101677.00
2018-07-03T22:53:26.653Z,101670.00
2018-07-03T22:56:00.056Z,101675.00
2018-07-03T22:58:30.372Z,101672.00
2018-07-03T23:01:01.242Z,101668.00
2018-07-03T23:03:33.805Z,101667.00
2018-07-03T23:06:04.972Z,101663.00
2018-07-03T23:08:40.356Z,101659.00
2018-07-03T23:11:13.508Z,101660.00
2018-07-03T23:13:51.527Z,101663.00
2018-07-03T23:16:23.000Z,101669.00
2018-07-03T23:18:54.293Z,101663.00
2018-07-03T23:21:27.659Z,101662.00
2018-07-03T23:23:59.479Z,101670.00
2018-07-03T23:26:29.888Z,101664.00
2018-07-03T23:29:00.917Z,101662.00
2018-07-03T23:31:32.140Z,101664.00
2018-07-03T23:34:02.966Z,101666.00
2018-07-03T23:36:35.891Z,101669.00
2018-07-03T23:39:11.326Z,101665.00
2018-07-03T23:41:47.158Z,101663.00
2018-07-03T23:44:21.249Z,101664.00
2018-07-03T23:47:10.263Z,101659.00
2018-07-03T23:50:03.425Z,101654.00
2018-07-03T23:52:51.807Z,101658.00
2018-07-03T23:55:43.032Z,101655.00
2018-07-03T23:58:31.859Z,101658.00
